createdAt,value
2019-02-28T00:01:21.124Z,6.40
2019-02-28T00:03:53.151Z,6.40
2019-02-28T00:06:24.747Z,6.40
2019-02-28T00:08:56.228Z,6.30
2019-02-28T00:11:28.592Z,6.30
2019-02-28T00:14:00.385Z,6.30
2019-02-28T00:16:35.653Z,6.40
2019-02-28T00:19:05.145Z,6.40
2019-02-28T00:21:37.378Z,6.40
2019-02-28T00:24:09.792Z,6.40
2019-02-28T00:26:46.312Z,6.40
2019-02-28T00:29:13.817Z,6.40
2019-02-28T00:31:49.428Z,6.40
2019-02-28T00:34:18.615Z,6.40
2019-02-28T00:36:53.396Z,6.40
2019-02-28T00:39:25.233Z,6.40
2019-02-28T00:41:56.503Z,6.50
2019-02-28T00:44:30.479Z,6.40
2019-02-28T00:47:00.424Z,6.40
2019-02-28T00:49:31.435Z,6.40
2019-02-28T00:52:02.755Z,6.40
2019-02-28T00:54:34.373Z,6.50
2019-02-28T00:57:07.280Z,6.40
2019-02-28T00:59:39.468Z,6.40
2019-02-28T01:02:11.290Z,6.40
2019-02-28T01:04:42.772Z,6.40
2019-02-28T01:07:16.218Z,6.40
2019-02-28T01:09:47.508Z,6.20
2019-02-28T01:12:19.951Z,6.30
2019-02-28T01:14:51.954Z,6.30
2019-02-28T01:17:26.736Z,6.20
2019-02-28T01:19:59.237Z,6.20
2019-02-28T01:22:31.035Z,6.20
2019-02-28T01:25:02.446Z,6.20
2019-02-28T01:27:34.299Z,6.20
2019-02-28T01:30:06.719Z,6.10
2019-02-28T01:32:39.432Z,6.10
2019-02-28T01:35:10.908Z,6.10
2019-02-28T01:37:42.580Z,6.00
2019-02-28T01:40:15.952Z,6.00
2019-02-28T01:42:47.703Z,5.90
2019-02-28T01:45:19.150Z,5.80
2019-02-28T01:47:52.378Z,5.60
2019-02-28T01:50:24.589Z,5.60
2019-02-28T01:52:56.867Z,5.40
2019-02-28T01:55:29.395Z,5.30
2019-02-28T01:58:02.434Z,5.30
2019-02-28T02:00:33.466Z,5.30
2019-02-28T02:03:04.396Z,5.20
2019-02-28T02:05:35.667Z,5.10
2019-02-28T02:08:07.732Z,5.10
2019-02-28T02:10:39.308Z,5.10
2019-02-28T02:13:11.024Z,5.10
2019-02-28T02:15:42.478Z,5.10
2019-02-28T02:18:14.466Z,5.10
2019-02-28T02:20:46.441Z,5.10
2019-02-28T02:23:19.435Z,5.10
2019-02-28T02:25:50.586Z,5.00
2019-02-28T02:28:26.904Z,4.90
2019-02-28T02:30:56.410Z,4.80
2019-02-28T02:33:28.191Z,4.90
2019-02-28T02:36:00.398Z,4.80
2019-02-28T02:38:39.744Z,4.80
2019-02-28T02:41:05.443Z,4.80
2019-02-28T02:43:37.020Z,4.70
2019-02-28T02:46:08.185Z,4.50
2019-02-28T02:48:42.280Z,4.50
2019-02-28T02:51:13.368Z,4.50
2019-02-28T02:53:44.994Z,4.40
2019-02-28T02:56:16.622Z,4.40
2019-02-28T02:58:50.795Z,4.40
2019-02-28T03:01:23.156Z,4.30
2019-02-28T03:03:54.326Z,4.30
2019-02-28T03:06:25.834Z,4.30
2019-02-28T03:08:57.404Z,4.30
2019-02-28T03:11:29.017Z,4.30
2019-02-28T03:14:00.443Z,4.20
2019-02-28T03:16:33.003Z,4.20
2019-02-28T03:19:04.509Z,4.20
2019-02-28T03:21:36.156Z,4.10
2019-02-28T03:24:14.729Z,4.20
2019-02-28T03:26:41.840Z,4.10
2019-02-28T03:29:13.795Z,4.10
2019-02-28T03:31:55.239Z,4.10
2019-02-28T03:34:18.624Z,4.20
2019-02-28T03:36:55.280Z,4.20
2019-02-28T03:39:25.653Z,4.10
2019-02-28T03:41:57.818Z,4.10
2019-02-28T03:44:28.989Z,4.10
2019-02-28T03:47:00.883Z,4.00
2019-02-28T03:49:32.667Z,4.00
2019-02-28T03:52:06.608Z,4.00
2019-02-28T03:54:38.586Z,4.00
2019-02-28T03:57:09.372Z,3.90
2019-02-28T03:59:41.758Z,3.80
2019-02-28T04:02:12.737Z,3.80
2019-02-28T04:04:48.811Z,3.80
2019-02-28T04:07:17.078Z,3.90
2019-02-28T04:09:49.548Z,4.00
2019-02-28T04:12:21.287Z,4.00
2019-02-28T04:14:52.927Z,4.10
2019-02-28T04:17:29.833Z,4.00
2019-02-28T04:20:00.092Z,3.90
2019-02-28T04:22:31.991Z,3.90
2019-02-28T04:25:03.279Z,3.90
2019-02-28T04:27:40.446Z,3.90
2019-02-28T04:30:11.793Z,3.90
2019-02-28T04:32:43.593Z,3.80
2019-02-28T04:35:15.575Z,3.80
2019-02-28T04:37:47.339Z,3.70
2019-02-28T04:40:18.705Z,3.90
2019-02-28T04:42:50.325Z,3.90
2019-02-28T04:45:23.332Z,3.90
2019-02-28T04:47:54.572Z,4.00
2019-02-28T04:50:31.301Z,4.00
2019-02-28T04:52:58.279Z,4.10
2019-02-28T04:55:30.659Z,4.20
2019-02-28T04:58:02.558Z,4.20
2019-02-28T05:00:33.767Z,4.30
2019-02-28T05:03:05.904Z,4.30
2019-02-28T05:05:37.716Z,4.30
2019-02-28T05:08:09.624Z,4.20
2019-02-28T05:10:41.286Z,4.20
2019-02-28T05:13:14.994Z,4.10
2019-02-28T05:15:47.465Z,4.10
2019-02-28T05:18:18.962Z,4.10
2019-02-28T05:20:49.796Z,4.20
2019-02-28T05:23:21.582Z,4.30
2019-02-28T05:25:54.146Z,4.40
2019-02-28T05:28:25.558Z,4.50
2019-02-28T05:30:57.008Z,4.50
2019-02-28T05:33:28.249Z,4.70
2019-02-28T05:36:00.262Z,4.80
2019-02-28T05:38:32.751Z,4.90
2019-02-28T05:41:04.267Z,5.00
2019-02-28T05:43:35.549Z,5.00
2019-02-28T05:46:06.729Z,5.10
2019-02-28T05:48:39.401Z,5.20
2019-02-28T05:51:11.231Z,5.20
2019-02-28T05:53:42.713Z,5.30
2019-02-28T05:56:13.769Z,5.30
2019-02-28T05:58:45.545Z,5.40
2019-02-28T06:01:17.169Z,5.50
2019-02-28T06:03:50.053Z,5.50
2019-02-28T06:06:22.154Z,5.50
2019-02-28T06:08:53.687Z,5.60
2019-02-28T06:11:25.752Z,5.60
2019-02-28T06:13:57.221Z,5.70
2019-02-28T06:16:28.629Z,5.90
2019-02-28T06:19:00.361Z,6.10
2019-02-28T06:21:31.640Z,6.30
2019-02-28T06:24:03.266Z,6.50
2019-02-28T06:26:36.086Z,6.60
2019-02-28T06:29:07.918Z,6.60
2019-02-28T06:31:40.215Z,6.70
2019-02-28T06:34:13.245Z,6.70
2019-02-28T06:36:44.756Z,6.80
2019-02-28T06:39:17.593Z,6.90
2019-02-28T06:41:48.945Z,7.00
2019-02-28T06:44:20.525Z,7.20
2019-02-28T06:46:52.512Z,7.40
2019-02-28T06:49:24.276Z,7.60
2019-02-28T06:51:56.259Z,7.80
2019-02-28T06:54:35.302Z,8.20
2019-02-28T06:57:27.440Z,8.50
2019-02-28T06:59:59.357Z,8.70
2019-02-28T07:02:31.494Z,8.90
2019-02-28T07:05:04.080Z,9.20
2019-02-28T07:07:36.374Z,9.50
2019-02-28T07:10:09.618Z,9.70
2019-02-28T07:12:42.159Z,10.10
2019-02-28T07:15:13.639Z,10.30
2019-02-28T07:17:46.520Z,10.60
2019-02-28T07:20:18.279Z,10.80
2019-02-28T07:22:54.369Z,11.20
2019-02-28T07:25:23.075Z,11.60
2019-02-28T07:27:54.339Z,11.90
2019-02-28T07:30:26.647Z,12.30
2019-02-28T07:32:58.529Z,12.50
2019-02-28T07:35:34.051Z,12.40
2019-02-28T07:38:08.083Z,12.80
2019-02-28T07:40:39.494Z,13.10
2019-02-28T07:43:27.877Z,13.60
2019-02-28T07:46:00.165Z,13.80
2019-02-28T07:48:32.483Z,14.00
2019-02-28T07:51:03.644Z,14.10
2019-02-28T07:53:35.991Z,14.40
2019-02-28T07:56:08.594Z,14.50
2019-02-28T07:58:40.028Z,14.70
2019-02-28T08:01:12.197Z,14.70
2019-02-28T08:03:44.773Z,14.80
2019-02-28T08:06:16.342Z,15.10
2019-02-28T08:08:48.124Z,15.50
2019-02-28T08:11:20.860Z,15.80
2019-02-28T08:13:52.791Z,16.10
2019-02-28T08:16:24.401Z,16.30
2019-02-28T08:18:55.631Z,16.40
2019-02-28T08:21:27.241Z,16.40
2019-02-28T08:23:58.249Z,16.60
2019-02-28T08:26:29.754Z,16.60
2019-02-28T08:29:07.810Z,16.20
2019-02-28T08:31:38.161Z,16.30
2019-02-28T08:34:09.530Z,16.40
2019-02-28T08:36:43.875Z,16.60
2019-02-28T08:39:16.850Z,16.80
2019-02-28T08:41:49.633Z,17.20
2019-02-28T08:44:23.834Z,17.50
2019-02-28T08:46:54.553Z,17.30
2019-02-28T08:49:26.864Z,17.20
2019-02-28T08:52:02.501Z,17.60
2019-02-28T08:54:33.284Z,17.60
2019-02-28T08:57:05.189Z,17.50
2019-02-28T08:59:37.164Z,17.70
2019-02-28T09:02:08.046Z,18.20
2019-02-28T09:04:41.438Z,18.40
2019-02-28T09:07:15.241Z,19.10
2019-02-28T09:09:46.187Z,18.80
2019-02-28T09:12:17.474Z,19.10
2019-02-28T09:14:48.772Z,19.60
2019-02-28T09:17:20.424Z,19.70
2019-02-28T09:19:53.552Z,19.70
2019-02-28T09:22:27.272Z,19.80
2019-02-28T09:24:57.471Z,19.60
2019-02-28T09:27:28.279Z,19.30
2019-02-28T09:29:59.488Z,19.30
2019-02-28T09:32:30.521Z,20.30
2019-02-28T09:35:05.742Z,21.30
2019-02-28T09:37:36.417Z,21.30
2019-02-28T09:40:08.593Z,21.80
2019-02-28T09:42:40.189Z,22.50
2019-02-28T09:45:14.431Z,22.30
2019-02-28T09:47:46.030Z,22.10
2019-02-28T09:50:22.434Z,23.10
2019-02-28T09:52:54.201Z,23.20
2019-02-28T09:55:25.847Z,23.30
2019-02-28T09:57:58.279Z,22.50
2019-02-28T10:00:30.499Z,22.10
2019-02-28T10:03:02.761Z,22.60
2019-02-28T10:05:38.677Z,22.90
2019-02-28T10:08:08.593Z,22.80
2019-02-28T10:10:41.057Z,21.90
2019-02-28T10:13:14.586Z,21.80
2019-02-28T10:15:46.567Z,21.80
2019-02-28T10:18:17.310Z,21.30
2019-02-28T10:20:49.055Z,21.10
2019-02-28T10:23:21.512Z,21.40
2019-02-28T10:25:54.224Z,21.70
2019-02-28T10:28:25.895Z,21.60
2019-02-28T10:30:57.563Z,21.90
2019-02-28T10:33:29.049Z,22.00
2019-02-28T10:36:01.643Z,23.00
2019-02-28T10:38:33.915Z,23.70
2019-02-28T10:41:08.557Z,23.00
2019-02-28T10:43:39.647Z,22.90
2019-02-28T10:46:13.344Z,22.60
2019-02-28T10:48:50.698Z,22.80
2019-02-28T10:51:16.271Z,23.00
2019-02-28T10:53:47.201Z,22.50
2019-02-28T10:56:18.198Z,23.40
2019-02-28T10:58:50.161Z,23.70
2019-02-28T11:01:22.685Z,23.30
2019-02-28T11:03:53.756Z,22.50
2019-02-28T11:06:28.057Z,22.20
2019-02-28T11:08:58.323Z,22.30
2019-02-28T11:11:29.791Z,22.00
2019-02-28T11:14:03.908Z,21.30
2019-02-28T11:16:33.707Z,21.50
2019-02-28T11:19:05.459Z,21.60
2019-02-28T11:21:36.664Z,21.30
2019-02-28T11:24:07.986Z,21.20
2019-02-28T11:26:44.740Z,20.90
2019-02-28T11:29:15.683Z,21.40
2019-02-28T11:31:46.999Z,22.40
2019-02-28T11:34:18.847Z,22.10
2019-02-28T11:36:50.401Z,22.10
2019-02-28T11:39:22.790Z,23.10
2019-02-28T11:41:54.435Z,22.90
2019-02-28T11:44:26.068Z,22.40
2019-02-28T11:46:57.869Z,22.60
2019-02-28T11:49:29.485Z,22.30
2019-02-28T11:52:00.887Z,21.90
2019-02-28T11:54:31.865Z,21.90
2019-02-28T11:57:08.745Z,21.80
2019-02-28T11:59:40.589Z,21.70
2019-02-28T12:02:12.443Z,22.50
2019-02-28T12:04:44.354Z,23.00
2019-02-28T12:07:15.928Z,23.70
2019-02-28T12:09:51.382Z,23.80
2019-02-28T12:12:21.288Z,24.60
2019-02-28T12:14:53.533Z,24.30
2019-02-28T12:17:28.326Z,24.70
2019-02-28T12:19:59.096Z,25.70
2019-02-28T12:22:30.342Z,25.50
2019-02-28T12:25:04.482Z,25.30
2019-02-28T12:27:34.790Z,25.60
2019-02-28T12:30:08.311Z,25.90
2019-02-28T12:32:40.352Z,26.00
2019-02-28T12:35:12.871Z,25.40
2019-02-28T12:37:46.050Z,25.00
2019-02-28T12:40:19.562Z,24.20
2019-02-28T12:42:50.668Z,24.90
2019-02-28T12:45:25.191Z,25.50
2019-02-28T12:47:56.492Z,26.70
2019-02-28T12:50:29.417Z,26.20
2019-02-28T12:53:01.691Z,25.70
2019-02-28T12:55:35.503Z,25.30
2019-02-28T12:58:07.117Z,25.20
2019-02-28T13:00:39.689Z,24.60
2019-02-28T13:03:12.122Z,24.70
2019-02-28T13:05:47.824Z,24.40
2019-02-28T13:08:17.356Z,24.60
2019-02-28T13:10:49.300Z,24.80
2019-02-28T13:13:27.493Z,25.50
2019-02-28T13:15:54.667Z,25.50
2019-02-28T13:18:26.743Z,24.40
2019-02-28T13:20:58.511Z,23.90
2019-02-28T13:23:33.159Z,23.40
2019-02-28T13:26:05.694Z,22.70
2019-02-28T13:28:41.071Z,22.40
2019-02-28T13:31:12.281Z,22.50
2019-02-28T13:33:43.444Z,22.10
2019-02-28T13:36:14.458Z,21.90
2019-02-28T13:38:46.486Z,21.80
2019-02-28T13:41:21.726Z,22.00
2019-02-28T13:43:54.729Z,22.50
2019-02-28T13:46:32.393Z,22.20
2019-02-28T13:48:59.857Z,22.40
2019-02-28T13:51:32.767Z,22.60
2019-02-28T13:54:06.501Z,22.50
2019-02-28T13:56:38.482Z,23.00
2019-02-28T13:59:10.083Z,22.50
2019-02-28T14:01:41.637Z,21.40
2019-02-28T14:04:13.669Z,20.80
2019-02-28T14:06:46.027Z,20.80
2019-02-28T14:09:18.852Z,21.10
2019-02-28T14:11:52.003Z,21.10
2019-02-28T14:14:23.553Z,21.00
2019-02-28T14:16:58.271Z,20.60
2019-02-28T14:19:29.155Z,19.90
2019-02-28T14:22:00.844Z,19.50
2019-02-28T14:24:32.895Z,19.00
2019-02-28T14:27:04.286Z,18.30
2019-02-28T14:29:36.642Z,18.10
2019-02-28T14:32:08.385Z,18.80
2019-02-28T14:34:40.399Z,18.60
2019-02-28T14:37:12.231Z,18.80
2019-02-28T14:39:44.085Z,18.90
2019-02-28T14:42:15.925Z,19.30
2019-02-28T14:44:48.084Z,19.30
2019-02-28T14:47:24.912Z,19.60
2019-02-28T14:49:55.481Z,18.90
2019-02-28T14:52:27.773Z,18.50
2019-02-28T14:54:59.234Z,18.40
2019-02-28T14:57:30.843Z,17.90
2019-02-28T15:00:06.304Z,18.10
2019-02-28T15:02:37.146Z,18.70
2019-02-28T15:05:09.925Z,18.50
2019-02-28T15:07:42.142Z,18.40
2019-02-28T15:10:15.731Z,18.60
2019-02-28T15:12:47.124Z,18.30
2019-02-28T15:15:20.427Z,18.10
2019-02-28T15:17:53.572Z,17.70
2019-02-28T15:20:31.505Z,17.80
2019-02-28T15:23:01.004Z,17.40
2019-02-28T15:25:32.887Z,17.20
2019-02-28T15:28:05.756Z,17.20
2019-02-28T15:30:38.189Z,17.20
2019-02-28T15:33:11.212Z,16.80
2019-02-28T15:35:43.181Z,16.40
2019-02-28T15:38:19.613Z,16.40
2019-02-28T15:40:50.924Z,16.30
2019-02-28T15:43:23.302Z,16.20
2019-02-28T15:45:56.272Z,16.00
2019-02-28T15:48:31.413Z,16.00
2019-02-28T15:51:03.638Z,15.90
2019-02-28T15:53:35.391Z,15.70
2019-02-28T15:56:13.233Z,15.60
2019-02-28T15:58:42.350Z,15.60
2019-02-28T16:01:15.477Z,15.60
2019-02-28T16:03:48.441Z,15.50
2019-02-28T16:06:21.838Z,15.30
2019-02-28T16:08:54.436Z,15.10
2019-02-28T16:11:27.352Z,14.90
2019-02-28T16:14:00.500Z,15.00
2019-02-28T16:16:33.642Z,14.70
2019-02-28T16:19:06.555Z,14.50
2019-02-28T16:21:41.614Z,14.60
2019-02-28T16:24:14.435Z,14.50
2019-02-28T16:26:48.027Z,14.40
2019-02-28T16:29:21.368Z,14.30
2019-02-28T16:31:54.748Z,14.20
2019-02-28T16:34:27.085Z,14.20
2019-02-28T16:37:01.006Z,14.10
2019-02-28T16:39:33.606Z,14.00
2019-02-28T16:42:08.342Z,13.80
2019-02-28T16:44:39.868Z,13.60
2019-02-28T16:47:12.830Z,13.60
2019-02-28T16:49:45.615Z,13.50
2019-02-28T16:52:18.330Z,13.30
2019-02-28T16:54:53.379Z,13.40
2019-02-28T16:57:27.040Z,13.20
2019-02-28T17:00:04.026Z,13.20
2019-02-28T17:02:35.082Z,13.10
2019-02-28T17:05:08.044Z,13.10
2019-02-28T17:07:43.579Z,13.00
2019-02-28T17:10:18.080Z,12.90
2019-02-28T17:13:08.946Z,12.90
2019-02-28T17:15:48.701Z,12.80
2019-02-28T17:18:22.587Z,12.80
2019-02-28T17:20:55.441Z,12.80
2019-02-28T17:23:28.130Z,12.80
2019-02-28T17:26:01.824Z,12.70
2019-02-28T17:28:49.366Z,12.60
2019-02-28T17:31:44.626Z,12.50
2019-02-28T17:34:23.805Z,12.30
2019-02-28T17:36:55.571Z,12.30
2019-02-28T17:39:28.487Z,12.20
2019-02-28T17:42:08.289Z,12.20
2019-02-28T17:45:20.091Z,12.20
2019-02-28T17:48:24.568Z,12.10
2019-02-28T17:51:22.748Z,11.90
2019-02-28T17:54:32.957Z,11.90
2019-02-28T17:57:41.665Z,12.00
2019-02-28T18:00:30.609Z,11.90
2019-02-28T18:03:49.430Z,11.80
2019-02-28T18:07:01.002Z,11.80
2019-02-28T18:09:51.454Z,11.70
2019-02-28T18:13:00.171Z,11.60
2019-02-28T18:16:03.866Z,11.60
2019-02-28T18:19:18.147Z,11.60
2019-02-28T18:22:21.825Z,11.50
2019-02-28T18:25:48.689Z,11.40
2019-02-28T18:29:06.964Z,11.40
2019-02-28T18:31:41.930Z,11.30
2019-02-28T18:34:25.003Z,11.30
2019-02-28T18:36:57.447Z,11.20
2019-02-28T18:39:30.390Z,11.20
2019-02-28T18:42:02.643Z,11.20
2019-02-28T18:44:37.340Z,11.20
2019-02-28T18:47:10.207Z,11.00
2019-02-28T18:49:43.646Z,11.00
2019-02-28T18:52:15.881Z,10.90
2019-02-28T18:54:49.162Z,10.90
2019-02-28T18:57:22.435Z,10.90
2019-02-28T18:59:56.407Z,10.90
2019-02-28T19:02:29.208Z,10.90
2019-02-28T19:05:02.084Z,10.80
2019-02-28T19:07:34.841Z,10.80
2019-02-28T19:10:09.027Z,10.70
2019-02-28T19:12:42.288Z,10.70
2019-02-28T19:15:16.974Z,10.70
2019-02-28T19:17:50.003Z,10.60
2019-02-28T19:20:26.359Z,10.50
2019-02-28T19:22:59.360Z,10.50
2019-02-28T19:25:32.228Z,10.40
2019-02-28T19:28:06.211Z,10.40
2019-02-28T19:30:40.387Z,10.40
2019-02-28T19:33:13.115Z,10.40
2019-02-28T19:35:46.232Z,10.30
2019-02-28T19:38:20.709Z,10.30
2019-02-28T19:40:55.352Z,10.20
2019-02-28T19:43:27.908Z,10.20
2019-02-28T19:46:00.676Z,10.10
2019-02-28T19:48:34.430Z,10.10
2019-02-28T19:51:06.904Z,10.10
2019-02-28T19:53:39.580Z,10.10
2019-02-28T19:56:13.122Z,10.20
2019-02-28T19:58:46.196Z,10.20
2019-02-28T20:01:20.963Z,10.20
2019-02-28T20:03:55.147Z,10.40
2019-02-28T20:06:27.681Z,10.40
2019-02-28T20:09:00.329Z,10.50
2019-02-28T20:11:33.409Z,10.40
2019-02-28T20:14:05.674Z,10.40
2019-02-28T20:16:38.588Z,10.40
2019-02-28T20:19:12.137Z,10.40
2019-02-28T20:21:47.211Z,10.30
2019-02-28T20:24:24.439Z,10.20
2019-02-28T20:26:58.082Z,10.30
2019-02-28T20:29:30.788Z,10.30
2019-02-28T20:32:03.807Z,10.30
2019-02-28T20:34:36.362Z,10.40
2019-02-28T20:37:09.325Z,10.40
2019-02-28T20:39:41.675Z,10.50
2019-02-28T20:42:14.137Z,10.50
2019-02-28T20:44:47.318Z,10.50
2019-02-28T20:47:20.597Z,10.50
2019-02-28T20:49:54.353Z,10.50
2019-02-28T20:52:28.046Z,10.40
2019-02-28T20:55:01.432Z,10.30
2019-02-28T20:57:34.372Z,10.10
2019-02-28T21:00:07.590Z,9.70
2019-02-28T21:02:41.427Z,9.40
2019-02-28T21:05:14.479Z,9.10
2019-02-28T21:07:48.216Z,9.20
2019-02-28T21:10:20.029Z,9.20
2019-02-28T21:12:52.584Z,9.10
2019-02-28T21:15:25.186Z,9.10
2019-02-28T21:21:06.615Z,9.10
2019-02-28T21:23:38.986Z,9.00
2019-02-28T21:26:11.209Z,9.20
2019-02-28T21:28:43.600Z,9.20
2019-02-28T21:31:16.292Z,8.90
2019-02-28T21:33:48.947Z,8.80
2019-02-28T21:36:20.990Z,8.70
2019-02-28T21:38:53.213Z,8.60
2019-02-28T21:41:26.719Z,8.50
2019-02-28T21:44:00.187Z,8.50
2019-02-28T21:46:31.559Z,8.50
2019-02-28T21:49:03.450Z,8.70
2019-02-28T21:51:35.133Z,8.60
2019-02-28T21:54:06.298Z,8.50
2019-02-28T21:56:37.502Z,8.50
2019-02-28T21:59:10.217Z,8.50
2019-02-28T22:01:44.443Z,8.50
2019-02-28T22:04:15.815Z,8.60
2019-02-28T22:06:47.677Z,8.40
2019-02-28T22:09:18.500Z,8.40
2019-02-28T22:11:50.038Z,8.40
2019-02-28T22:14:21.644Z,8.40
2019-02-28T22:16:52.941Z,8.40
2019-02-28T22:19:23.846Z,8.50
2019-02-28T22:21:55.723Z,8.40
2019-02-28T22:24:27.251Z,8.30
2019-02-28T22:26:58.528Z,8.50
2019-02-28T22:29:31.078Z,8.30
2019-02-28T22:32:24.411Z,8.30
2019-02-28T22:35:06.232Z,8.40
2019-02-28T22:37:38.721Z,8.50
2019-02-28T22:40:10.468Z,8.50
2019-02-28T22:42:43.487Z,8.40
2019-02-28T22:45:17.521Z,8.40
2019-02-28T22:47:49.145Z,8.40
2019-02-28T22:50:20.504Z,8.50
2019-02-28T22:52:53.685Z,8.50
2019-02-28T22:55:25.185Z,8.60
2019-02-28T22:57:56.342Z,8.60
2019-02-28T23:01:09.705Z,8.40
2019-02-28T23:03:41.920Z,8.40
2019-02-28T23:06:13.352Z,8.40
2019-02-28T23:08:44.884Z,8.30
2019-02-28T23:11:17.164Z,8.30
2019-02-28T23:13:49.984Z,8.20
2019-02-28T23:16:21.400Z,8.10
2019-02-28T23:18:53.374Z,8.10
2019-02-28T23:21:24.832Z,8.00
2019-02-28T23:23:56.594Z,8.10
2019-02-28T23:26:29.350Z,7.90
2019-02-28T23:29:15.652Z,8.00
2019-02-28T23:32:33.866Z,8.00
2019-02-28T23:35:06.003Z,8.00
2019-02-28T23:37:37.271Z,8.00
2019-02-28T23:40:08.922Z,8.00
2019-02-28T23:42:40.039Z,7.90
2019-02-28T23:45:14.047Z,7.90
2019-02-28T23:47:45.641Z,7.90
2019-02-28T23:50:16.346Z,7.70
2019-02-28T23:52:48.372Z,7.70
2019-02-28T23:55:19.509Z,7.80
2019-02-28T23:57:50.732Z,7.90
